Time;durP1;ratioP1;P1;durP2;ratioP2;P2;SDS_P1;SDS_P2;PMS_P1;PMS_P2;Temp;Humidity;BMP_temperature;BMP_pressure;BME280_temperature;BME280_humidity;BME280_pressure;Samples;Min_cycle;Max_cycle;Signal;HPM_P1;HPM_P2
2022/12/30 00:00:59;;;;;;;24.60;3.35;;;7.30;99.90;;;;;;4857987;29;20049;-76
2022/12/30 00:03:25;;;;;;;13.23;3.03;;;7.30;99.90;;;;;;4859162;29;20041;-76
2022/12/30 00:05:50;;;;;;;14.35;2.60;;;7.20;99.90;;;;;;4858190;29;20058;-77
2022/12/30 00:11:00;;;;;;;11.30;2.50;;;7.10;99.90;;;;;;4857207;29;20524;-77
2022/12/30 00:34:06;;;;;;;13.95;3.10;;;7.00;99.90;;;;;;4857851;29;20092;-77
2022/12/30 00:36:32;;;;;;;12.98;2.80;;;7.10;99.90;;;;;;4858186;29;20053;-77
2022/12/30 00:38:58;;;;;;;9.93;2.25;;;7.10;99.90;;;;;;4858049;29;20124;-77
2022/12/30 00:44:08;;;;;;;15.65;2.95;;;7.00;99.90;;;;;;4841447;29;20083;-77
2022/12/30 00:46:37;;;;;;;12.45;2.45;;;7.00;99.90;;;;;;4846968;29;20423;-77
2022/12/30 00:57:15;;;;;;;11.05;2.13;;;6.90;99.90;;;;;;4844416;29;20057;-77
2022/12/30 00:59:41;;;;;;;8.90;2.47;;;6.90;99.90;;;;;;4857609;29;20045;-77
2022/12/30 01:02:07;;;;;;;15.15;2.60;;;6.90;99.90;;;;;;4842023;29;20120;-77
2022/12/30 01:04:32;;;;;;;10.18;2.10;;;6.90;99.90;;;;;;4858370;29;20097;-77
2022/12/30 01:06:58;;;;;;;10.15;2.40;;;6.80;99.90;;;;;;4861408;29;20140;-77
2022/12/30 01:09:24;;;;;;;10.65;2.17;;;6.80;99.90;;;;;;4872825;29;20084;-77
2022/12/30 01:12:07;;;;;;;11.13;2.55;;;6.80;99.90;;;;;;4827250;29;20058;-77
2022/12/30 01:14:34;;;;;;;16.33;2.80;;;6.80;99.90;;;;;;4858054;29;20529;-77
2022/12/30 01:17:00;;;;;;;17.50;4.07;;;6.80;99.90;;;;;;4856584;29;20057;-77
2022/12/30 01:19:26;;;;;;;19.67;3.28;;;6.80;99.90;;;;;;4842853;29;20057;-77
2022/12/30 01:21:51;;;;;;;14.27;2.97;;;6.90;99.90;;;;;;4841503;29;20087;-77
2022/12/30 01:24:17;;;;;;;16.90;3.05;;;6.90;99.90;;;;;;4839018;29;20111;-76
2022/12/30 01:26:43;;;;;;;15.52;3.03;;;7.00;99.90;;;;;;4832750;29;20132;-76
2022/12/30 01:29:08;;;;;;;17.67;3.08;;;7.00;99.90;;;;;;4842652;29;20053;-77
2022/12/30 01:31:34;;;;;;;16.65;3.67;;;6.90;99.90;;;;;;4855649;29;20486;-77
2022/12/30 01:34:00;;;;;;;15.27;3.00;;;6.90;99.90;;;;;;4858377;29;20049;-76
2022/12/30 01:36:25;;;;;;;15.18;2.72;;;7.00;99.90;;;;;;4857701;29;20042;-76
2022/12/30 01:38:51;;;;;;;12.50;2.75;;;7.00;99.90;;;;;;4856225;29;20057;-76
2022/12/30 01:41:17;;;;;;;17.50;3.13;;;7.00;99.90;;;;;;4857779;29;20121;-77
2022/12/30 01:43:48;;;;;;;11.65;3.13;;;7.00;99.90;;;;;;4838135;29;20102;-77
2022/12/30 01:46:28;;;;;;;14.23;3.63;;;7.00;99.90;;;;;;4843249;29;20050;-77
2022/12/30 01:48:56;;;;;;;17.33;3.10;;;7.10;99.90;;;;;;4856250;29;20460;-77
2022/12/30 01:51:31;;;;;;;16.77;3.13;;;7.10;99.90;;;;;;4857050;29;20447;-77
2022/12/30 01:54:00;;;;;;;14.30;2.75;;;7.10;99.90;;;;;;4858702;29;20592;-77
2022/12/30 01:56:33;;;;;;;15.85;2.63;;;7.10;99.90;;;;;;4860797;29;20049;-77
2022/12/30 01:59:15;;;;;;;15.70;2.78;;;7.10;99.90;;;;;;4860866;29;20042;-77
2022/12/30 02:01:42;;;;;;;15.57;3.03;;;7.20;99.90;;;;;;4860617;29;20073;-77
2022/12/30 02:04:12;;;;;;;16.52;3.25;;;7.20;99.90;;;;;;4861030;29;20399;-71
2022/12/30 02:07:06;;;;;;;17.95;3.38;;;7.20;99.90;;;;;;4846001;29;20431;-71
2022/12/30 02:09:33;;;;;;;14.48;2.72;;;7.20;99.90;;;;;;4842658;29;20451;-70
2022/12/30 02:12:00;;;;;;;18.05;3.45;;;7.20;99.90;;;;;;4830407;29;20037;-70
2022/12/30 02:14:27;;;;;;;;;;;7.30;99.90;;;;;;4841729;29;20053;-70
2022/12/30 02:16:53;;;;;;;14.48;2.78;;;7.20;99.90;;;;;;4837712;29;20273;-71
2022/12/30 02:19:41;;;;;;;14.23;3.13;;;7.20;99.90;;;;;;4859094;29;20058;-71
2022/12/30 02:22:22;;;;;;;20.20;3.28;;;7.20;99.90;;;;;;4859164;29;20615;-71
2022/12/30 02:25:19;;;;;;;12.90;2.45;;;7.20;99.90;;;;;;4844235;29;20494;-71
2022/12/30 02:28:08;;;;;;;26.50;3.95;;;7.20;99.90;;;;;;4859020;29;20049;-70
2022/12/30 02:31:42;;;;;;;18.02;2.78;;;7.10;99.90;;;;;;4858762;29;20049;-70
2022/12/30 02:34:31;;;;;;;14.20;3.10;;;7.20;99.90;;;;;;4787491;29;20145;-77
2022/12/30 02:37:33;;;;;;;23.85;2.97;;;7.20;99.90;;;;;;4772260;30;20058;-76
2022/12/30 02:40:07;;;;;;;17.90;3.17;;;7.20;99.90;;;;;;4841758;29;20130;-76
2022/12/30 02:45:52;;;;;;;17.38;3.20;;;7.20;99.90;;;;;;4859309;29;20104;-76
2022/12/30 02:48:23;;;;;;;13.38;2.35;;;7.20;99.90;;;;;;4848697;29;20049;-76
2022/12/30 02:53:38;;;;;;;18.92;3.53;;;7.10;99.90;;;;;;4848884;29;20101;-76
2022/12/30 02:56:05;;;;;;;15.43;2.50;;;7.10;99.90;;;;;;4858959;29;20045;-76
2022/12/30 02:58:33;;;;;;;14.82;2.70;;;7.10;99.90;;;;;;4859701;29;20494;-76
2022/12/30 03:04:24;;;;;;;14.40;2.47;;;7.00;99.90;;;;;;4858574;29;20067;-77
2022/12/30 03:07:11;;;;;;;14.43;2.85;;;6.90;99.90;;;;;;4859661;29;20401;-76
2022/12/30 03:13:18;;;;;;;12.00;2.28;;;7.00;99.90;;;;;;4837499;29;20521;-76
2022/12/30 03:16:03;;;;;;;17.40;2.70;;;6.90;99.90;;;;;;4840876;29;20053;-76
2022/12/30 03:18:30;;;;;;;12.90;2.78;;;7.00;99.90;;;;;;4843774;29;20063;-76
2022/12/30 03:20:56;;;;;;;19.85;3.17;;;7.00;99.90;;;;;;4845214;29;20049;-76
2022/12/30 03:28:56;;;;;;;18.35;3.33;;;7.00;99.90;;;;;;4858862;29;20133;-77
2022/12/30 03:31:22;;;;;;;11.70;2.55;;;7.10;99.90;;;;;;4858187;29;20125;-77
2022/12/30 03:33:48;;;;;;;16.63;3.60;;;7.10;99.90;;;;;;4858346;29;20393;-77
2022/12/30 03:36:19;;;;;;;12.65;3.03;;;7.00;99.90;;;;;;4843926;29;20057;-77
2022/12/30 03:38:53;;;;;;;9.98;2.38;;;7.00;99.90;;;;;;4858514;29;20075;-76
2022/12/30 03:41:22;;;;;;;17.20;2.90;;;7.00;99.90;;;;;;4843892;29;20060;-76
2022/12/30 03:43:49;;;;;;;9.35;2.20;;;7.00;99.90;;;;;;4854534;29;20054;-76
2022/12/30 03:46:14;;;;;;;9.98;2.17;;;6.90;99.90;;;;;;4859516;29;20034;-76
2022/12/30 03:48:40;;;;;;;10.70;2.38;;;6.90;99.90;;;;;;4843376;29;20144;-76
2022/12/30 03:51:06;;;;;;;10.45;2.40;;;6.90;99.90;;;;;;4857516;29;20065;-77
2022/12/30 03:53:32;;;;;;;9.82;2.30;;;6.80;99.90;;;;;;4857743;29;20048;-76
2022/12/30 03:55:57;;;;;;;13.18;2.42;;;6.70;99.90;;;;;;4858693;29;20049;-76
2022/12/30 03:58:23;;;;;;;12.18;2.83;;;6.80;99.90;;;;;;4859621;29;20056;-76
2022/12/30 04:00:50;;;;;;;17.33;3.17;;;6.70;99.90;;;;;;4842456;29;20041;-77
2022/12/30 04:03:16;;;;;;;12.43;2.72;;;6.70;99.90;;;;;;4830770;29;20054;-76
2022/12/30 04:05:42;;;;;;;15.77;3.08;;;6.80;99.90;;;;;;4840499;29;20494;-76
2022/12/30 04:08:08;;;;;;;11.95;2.92;;;6.80;99.90;;;;;;4858942;29;20073;-76
2022/12/30 04:10:34;;;;;;;11.55;2.85;;;6.80;99.90;;;;;;4858422;29;20042;-76
2022/12/30 04:12:59;;;;;;;11.00;2.70;;;6.80;99.90;;;;;;4842969;29;20122;-76
2022/12/30 04:15:25;;;;;;;13.20;3.10;;;6.90;99.90;;;;;;4857827;29;20224;-76
2022/12/30 04:17:51;;;;;;;13.88;2.88;;;6.90;99.90;;;;;;4842211;29;20045;-76
2022/12/30 04:20:17;;;;;;;15.40;3.00;;;6.90;99.90;;;;;;4853978;29;20041;-77
2022/12/30 04:22:42;;;;;;;13.82;3.05;;;6.90;99.90;;;;;;4849448;29;20121;-77
2022/12/30 04:25:08;;;;;;;19.58;3.17;;;7.00;99.90;;;;;;4827855;29;20577;-77
2022/12/30 04:27:34;;;;;;;12.60;3.13;;;7.00;99.90;;;;;;4858712;29;20391;-77
2022/12/30 04:30:00;;;;;;;11.52;2.67;;;7.10;99.90;;;;;;4841640;29;20171;-77
2022/12/30 04:32:25;;;;;;;20.98;4.03;;;7.10;99.90;;;;;;4856483;29;20535;-77
2022/12/30 04:34:51;;;;;;;12.82;2.92;;;7.20;99.90;;;;;;4857003;29;20045;-77
2022/12/30 04:37:17;;;;;;;11.85;3.10;;;7.20;99.90;;;;;;4858498;29;20362;-77
2022/12/30 04:39:42;;;;;;;11.38;2.63;;;7.30;99.90;;;;;;4842044;29;20439;-77
2022/12/30 04:42:08;;;;;;;13.85;3.03;;;7.40;99.90;;;;;;4858066;29;20056;-76
2022/12/30 04:44:33;;;;;;;15.00;3.05;;;7.40;99.90;;;;;;4858293;29;20755;-76
2022/12/30 04:46:59;;;;;;;9.50;2.67;;;7.40;99.90;;;;;;4837047;29;20049;-77
2022/12/30 04:49:27;;;;;;;14.30;3.33;;;7.40;99.90;;;;;;4856182;29;20065;-76
2022/12/30 04:51:53;;;;;;;10.77;2.60;;;7.40;99.90;;;;;;4855943;29;20061;-77
2022/12/30 04:54:18;;;;;;;14.18;3.00;;;7.40;99.90;;;;;;4810071;29;20054;-76
2022/12/30 04:56:44;;;;;;;12.68;2.78;;;7.40;99.90;;;;;;4837389;29;20060;-76
2022/12/30 04:59:10;;;;;;;11.85;2.30;;;7.40;99.90;;;;;;4839875;29;20447;-76
2022/12/30 05:01:35;;;;;;;12.10;3.08;;;7.30;99.90;;;;;;4841811;29;20410;-76
2022/12/30 05:04:01;;;;;;;11.95;2.90;;;7.40;99.90;;;;;;4836426;29;20049;-77
2022/12/30 05:06:26;;;;;;;8.85;2.50;;;7.40;99.90;;;;;;4853077;29;20038;-76
2022/12/30 05:08:52;;;;;;;12.88;3.25;;;7.40;99.90;;;;;;4857134;29;20132;-76
2022/12/30 05:11:18;;;;;;;15.95;3.97;;;7.50;99.90;;;;;;4858004;29;20057;-76
2022/12/30 05:13:43;;;;;;;9.45;2.92;;;7.50;99.90;;;;;;4857426;29;20703;-76
2022/12/30 05:16:09;;;;;;;13.85;3.50;;;7.50;99.90;;;;;;4826183;29;20046;-76
2022/12/30 05:18:35;;;;;;;10.25;3.38;;;7.60;99.90;;;;;;4842385;29;20050;-76
2022/12/30 05:21:00;;;;;;;11.43;3.50;;;7.60;99.90;;;;;;4856022;29;20486;-76
2022/12/30 05:26:15;;;;;;;10.90;4.32;;;7.70;99.90;;;;;;4841963;29;20088;-76
2022/12/30 05:28:45;;;;;;;17.65;4.93;;;7.70;99.90;;;;;;4856623;29;20053;-76
2022/12/30 05:31:12;;;;;;;11.15;4.57;;;7.80;99.90;;;;;;4854446;29;20049;-76
2022/12/30 05:33:38;;;;;;;12.02;4.78;;;7.80;99.90;;;;;;4857688;29;20115;-76
2022/12/30 05:36:04;;;;;;;14.13;4.40;;;7.80;99.90;;;;;;4833376;29;20053;-77
2022/12/30 05:38:30;;;;;;;15.27;4.30;;;7.80;99.90;;;;;;4858872;29;20049;-76
2022/12/30 05:40:55;;;;;;;13.48;4.95;;;7.70;99.90;;;;;;4855695;29;20128;-76
2022/12/30 05:43:21;;;;;;;11.73;4.22;;;7.70;99.90;;;;;;4843169;29;20045;-76
2022/12/30 05:45:47;;;;;;;16.13;4.20;;;7.60;99.90;;;;;;4823538;29;20447;-77
2022/12/30 05:48:12;;;;;;;10.75;3.83;;;7.60;99.90;;;;;;4843740;29;20064;-77
2022/12/30 05:50:39;;;;;;;14.65;3.92;;;7.60;99.90;;;;;;4852836;29;20403;-76
2022/12/30 05:53:05;;;;;;;13.15;4.20;;;7.60;99.90;;;;;;4841401;29;20124;-76
2022/12/30 05:55:31;;;;;;;15.73;3.92;;;7.60;99.90;;;;;;4840121;29;20118;-76
2022/12/30 05:57:56;;;;;;;9.93;3.75;;;7.60;99.90;;;;;;4833173;29;20061;-76
2022/12/30 06:00:22;;;;;;;9.63;3.80;;;7.50;99.90;;;;;;4842240;29;20101;-76
2022/12/30 06:02:48;;;;;;;13.85;4.45;;;7.50;99.90;;;;;;4856035;29;20101;-76
2022/12/30 06:05:13;;;;;;;14.52;4.80;;;7.50;99.90;;;;;;4838359;29;20041;-77
2022/12/30 06:07:39;;;;;;;13.18;4.32;;;7.50;99.90;;;;;;4841740;29;20057;-77
2022/12/30 06:10:05;;;;;;;10.73;4.30;;;7.40;99.90;;;;;;4855312;29;20041;-76
2022/12/30 06:12:31;;;;;;;;;;;7.40;99.90;;;;;;4838640;29;20132;-76
2022/12/30 06:14:57;;;;;;;14.07;4.30;;;7.30;99.90;;;;;;4845965;29;20065;-76
2022/12/30 06:17:22;;;;;;;12.07;4.20;;;7.20;99.90;;;;;;4852306;29;20497;-76
2022/12/30 06:19:48;;;;;;;16.00;4.55;;;7.10;99.90;;;;;;4839443;29;20588;-76
2022/12/30 06:22:13;;;;;;;9.85;3.88;;;7.10;99.90;;;;;;4831635;29;20110;-76
2022/12/30 06:24:39;;;;;;;13.82;3.85;;;7.00;99.90;;;;;;4856787;29;20038;-76
2022/12/30 06:27:05;;;;;;;9.18;3.35;;;6.90;99.90;;;;;;4841185;29;20048;-77
2022/12/30 06:29:30;;;;;;;10.93;3.45;;;6.90;99.90;;;;;;4858097;29;20145;-76
2022/12/30 06:31:56;;;;;;;10.27;2.70;;;6.80;99.90;;;;;;4854558;29;20068;-77
2022/12/30 06:34:22;;;;;;;8.77;2.90;;;6.80;99.90;;;;;;4839881;29;20409;-76
2022/12/30 06:36:47;;;;;;;9.27;2.90;;;6.70;99.90;;;;;;4856202;29;20072;-78
2022/12/30 06:39:13;;;;;;;13.05;3.00;;;6.60;99.90;;;;;;4844032;29;20049;-77
2022/12/30 06:41:39;;;;;;;8.32;2.80;;;6.60;99.90;;;;;;4858450;29;20041;-77
2022/12/30 06:44:05;;;;;;;12.82;3.53;;;6.60;99.90;;;;;;4829106;29;20049;-76
2022/12/30 06:46:30;;;;;;;10.65;2.97;;;6.60;99.90;;;;;;4844406;29;20462;-76
2022/12/30 06:48:56;;;;;;;10.63;3.50;;;6.70;99.90;;;;;;4860381;29;20072;-77
2022/12/30 06:51:22;;;;;;;11.27;3.05;;;6.60;99.90;;;;;;4836809;29;20151;-77
2022/12/30 06:53:47;;;;;;;11.38;3.28;;;6.60;99.90;;;;;;4843804;29;20486;-77
2022/12/30 06:56:13;;;;;;;10.55;2.60;;;6.60;99.90;;;;;;4859227;29;20052;-77
2022/12/30 06:58:39;;;;;;;7.53;2.78;;;6.60;99.90;;;;;;4842077;29;20054;-77
2022/12/30 07:01:04;;;;;;;10.27;2.85;;;6.60;99.90;;;;;;4802622;29;20068;-76
2022/12/30 07:03:30;;;;;;;10.52;2.90;;;6.60;99.90;;;;;;4861077;29;20053;-76
2022/12/30 07:05:56;;;;;;;8.13;2.85;;;6.60;99.90;;;;;;4859332;29;20502;-76
2022/12/30 07:08:22;;;;;;;15.43;3.25;;;6.60;99.90;;;;;;4857491;29;20062;-76
2022/12/30 07:10:47;;;;;;;13.48;3.20;;;6.60;99.90;;;;;;4856853;29;20110;-71
2022/12/30 07:13:14;;;;;;;9.40;3.22;;;6.60;99.90;;;;;;4841215;29;20128;-72
2022/12/30 07:15:40;;;;;;;10.93;2.45;;;6.60;99.90;;;;;;4858069;29;20042;-72
2022/12/30 07:18:06;;;;;;;12.60;2.85;;;6.60;99.90;;;;;;4827935;29;20553;-71
2022/12/30 07:20:32;;;;;;;7.32;2.10;;;6.60;99.90;;;;;;4838532;29;20106;-72
2022/12/30 07:22:58;;;;;;;8.75;2.35;;;6.60;99.90;;;;;;4840537;29;21530;-72
2022/12/30 07:25:23;;;;;;;10.20;2.65;;;6.50;99.90;;;;;;4822011;29;20088;-71
2022/12/30 07:27:49;;;;;;;13.05;2.90;;;6.60;99.90;;;;;;4856085;29;20050;-71
2022/12/30 07:30:15;;;;;;;8.45;2.40;;;6.60;99.90;;;;;;4856114;29;20641;-72
2022/12/30 07:32:41;;;;;;;9.77;2.58;;;6.60;99.90;;;;;;4842307;29;20053;-73
2022/12/30 07:35:07;;;;;;;11.77;2.90;;;6.60;99.90;;;;;;4836542;29;20145;-71
2022/12/30 07:37:34;;;;;;;10.88;2.97;;;6.70;99.90;;;;;;4820949;29;20080;-71
2022/12/30 07:39:59;;;;;;;11.57;2.42;;;6.70;99.90;;;;;;4834612;29;20124;-71
2022/12/30 07:42:25;;;;;;;10.90;2.50;;;6.70;99.90;;;;;;4837073;29;20466;-72
2022/12/30 07:44:51;;;;;;;11.48;2.40;;;6.70;99.90;;;;;;4854349;29;20106;-72
2022/12/30 07:47:16;;;;;;;9.93;2.70;;;6.70;99.90;;;;;;4852351;29;20497;-72
2022/12/30 07:49:42;;;;;;;11.32;2.97;;;6.70;99.90;;;;;;4853590;29;20137;-72
2022/12/30 07:52:08;;;;;;;8.15;2.30;;;6.60;99.90;;;;;;4831680;29;20063;-71
2022/12/30 07:54:34;;;;;;;10.57;2.42;;;6.50;99.90;;;;;;4855362;29;20068;-71
2022/12/30 07:56:59;;;;;;;12.82;2.55;;;6.50;99.90;;;;;;4853517;29;20053;-78
2022/12/30 07:59:25;;;;;;;10.68;2.75;;;6.50;99.90;;;;;;4856077;29;20096;-77
2022/12/30 08:01:51;;;;;;;13.68;2.53;;;6.60;99.90;;;;;;4841061;29;20053;-77
2022/12/30 08:04:16;;;;;;;11.65;2.58;;;6.60;99.90;;;;;;4837328;29;20048;-77
2022/12/30 08:06:42;;;;;;;10.43;2.60;;;6.60;99.90;;;;;;4855892;29;20559;-77
2022/12/30 08:09:08;;;;;;;9.25;2.33;;;6.60;99.90;;;;;;4858291;29;20079;-77
2022/12/30 08:11:33;;;;;;;14.32;3.47;;;6.60;99.90;;;;;;4848718;29;20686;-78
2022/12/30 08:13:59;;;;;;;8.50;2.42;;;6.60;99.90;;;;;;4834244;29;20472;-78
2022/12/30 08:16:25;;;;;;;12.30;2.72;;;6.60;99.90;;;;;;4838748;29;20102;-72
2022/12/30 08:18:51;;;;;;;9.60;2.10;;;6.60;99.90;;;;;;4839105;29;20053;-76
2022/12/30 08:21:17;;;;;;;9.90;2.42;;;6.60;99.90;;;;;;4840485;29;20046;-76
2022/12/30 08:23:47;;;;;;;13.32;2.47;;;6.60;99.90;;;;;;4850825;29;20129;-76
2022/12/30 08:26:18;;;;;;;15.48;2.78;;;6.60;99.90;;;;;;4859289;29;20045;-77
2022/12/30 08:28:44;;;;;;;17.42;3.67;;;6.70;99.90;;;;;;4858779;29;20049;-76
2022/12/30 08:31:14;;;;;;;12.45;2.92;;;6.70;99.90;;;;;;4858409;29;20057;-71
2022/12/30 08:33:41;;;;;;;12.48;2.67;;;6.80;99.90;;;;;;4842403;29;20054;-77
2022/12/30 08:36:09;;;;;;;13.68;2.95;;;6.80;99.90;;;;;;4859142;29;20473;-77
2022/12/30 08:38:37;;;;;;;11.95;2.70;;;6.80;99.90;;;;;;4829030;29;20420;-77
2022/12/30 08:41:09;;;;;;;11.93;2.38;;;6.80;99.90;;;;;;4860528;29;20102;-77
2022/12/30 08:43:35;;;;;;;9.95;2.50;;;6.80;99.90;;;;;;4858850;29;20171;-77
2022/12/30 08:46:01;;;;;;;10.98;2.80;;;6.90;99.90;;;;;;4858955;29;20214;-77
2022/12/30 08:48:27;;;;;;;12.02;2.88;;;6.90;99.90;;;;;;4828018;29;20049;-77
2022/12/30 08:50:54;;;;;;;14.38;3.67;;;6.90;99.90;;;;;;4858586;29;20479;-77
2022/12/30 08:53:20;;;;;;;14.05;3.10;;;7.00;99.90;;;;;;4858153;29;20049;-72
2022/12/30 08:55:46;;;;;;;13.60;3.25;;;6.90;99.90;;;;;;4859583;29;20033;-71
2022/12/30 08:58:11;;;;;;;9.77;2.80;;;7.00;99.90;;;;;;4831536;29;20470;-71
2022/12/30 09:00:38;;;;;;;11.32;3.67;;;7.00;99.90;;;;;;4838498;29;20045;-69
2022/12/30 09:03:04;;;;;;;13.45;2.92;;;7.00;99.90;;;;;;4856279;29;20049;-76
2022/12/30 09:05:31;;;;;;;;;;;7.00;99.90;;;;;;4850660;29;20049;-77
2022/12/30 09:07:57;;;;;;;9.93;2.42;;;7.00;99.90;;;;;;4839434;29;19924;-77
2022/12/30 09:10:23;;;;;;;10.10;2.50;;;7.00;99.90;;;;;;4855240;29;20508;-78
2022/12/30 09:12:48;;;;;;;12.15;2.75;;;7.00;99.90;;;;;;4857551;29;20104;-76
2022/12/30 09:15:14;;;;;;;12.02;3.08;;;7.00;99.90;;;;;;4841609;29;20549;-77
2022/12/30 09:17:40;;;;;;;9.80;2.80;;;7.00;99.90;;;;;;4859037;29;20088;-77
2022/12/30 09:20:06;;;;;;;12.25;3.22;;;7.00;99.90;;;;;;4833774;29;20056;-77
2022/12/30 09:22:32;;;;;;;9.90;2.90;;;7.00;99.90;;;;;;4843644;29;20174;-77
2022/12/30 09:24:57;;;;;;;9.70;2.78;;;7.00;99.90;;;;;;4857274;29;20132;-77
2022/12/30 09:27:24;;;;;;;8.88;2.47;;;7.00;99.90;;;;;;4855980;29;20077;-78
2022/12/30 09:29:49;;;;;;;12.73;2.78;;;7.00;99.90;;;;;;4857186;29;20564;-77
2022/12/30 09:32:15;;;;;;;9.52;2.78;;;7.00;99.90;;;;;;4855749;29;20201;-77
2022/12/30 09:34:41;;;;;;;11.45;2.72;;;7.10;99.90;;;;;;4858499;29;20046;-72
2022/12/30 09:37:08;;;;;;;7.38;2.38;;;7.00;99.90;;;;;;4857294;29;20379;-72
2022/12/30 09:39:33;;;;;;;10.15;2.72;;;7.00;99.90;;;;;;4838887;29;20495;-72
2022/12/30 09:45:00;;;;;;;13.95;2.78;;;7.10;99.90;;;;;;4857516;29;20056;-72
2022/12/30 09:47:38;;;;;;;12.65;6.47;;;7.10;99.90;;;;;;4840887;29;20087;-72
2022/12/30 09:50:22;;;;;;;7.72;2.67;;;7.20;99.90;;;;;;4856404;29;20061;-72
2022/12/30 09:52:57;;;;;;;9.15;2.40;;;7.20;99.90;;;;;;4854668;29;20073;-72
2022/12/30 09:55:30;;;;;;;10.60;2.58;;;7.20;99.90;;;;;;4858139;29;20141;-73
2022/12/30 09:57:59;;;;;;;9.73;2.28;;;7.20;99.90;;;;;;4851886;29;20057;-72
2022/12/30 10:00:28;;;;;;;8.48;2.42;;;7.20;99.90;;;;;;4839347;29;20057;-70
2022/12/30 10:02:58;;;;;;;9.10;2.30;;;7.20;99.90;;;;;;4855461;29;20046;-72
2022/12/30 10:05:53;;;;;;;13.85;2.90;;;7.20;99.90;;;;;;4855912;29;20053;-71
2022/12/30 10:08:31;;;;;;;9.93;2.58;;;7.30;99.90;;;;;;4840286;29;20061;-72
2022/12/30 10:11:14;;;;;;;13.93;2.45;;;7.30;99.90;;;;;;4862663;29;20084;-72
2022/12/30 10:13:56;;;;;;;10.85;2.40;;;7.30;99.90;;;;;;4858642;29;20053;-73
2022/12/30 10:16:57;;;;;;;9.15;2.60;;;7.30;99.90;;;;;;4860065;29;20371;-73
2022/12/30 10:19:49;;;;;;;8.80;2.13;;;7.40;99.90;;;;;;4847347;29;20046;-73
2022/12/30 10:22:33;;;;;;;11.35;2.80;;;7.40;99.90;;;;;;4844472;29;20491;-73
2022/12/30 10:25:20;;;;;;;8.40;2.50;;;7.40;99.90;;;;;;4855611;29;20050;-73
2022/12/30 10:27:48;;;;;;;10.05;2.50;;;7.40;99.90;;;;;;4856222;29;20041;-72
2022/12/30 10:30:22;;;;;;;11.48;2.10;;;7.40;99.90;;;;;;4860887;29;20049;-73
2022/12/30 10:33:08;;;;;;;9.68;2.30;;;7.40;99.90;;;;;;4854001;29;20067;-73
2022/12/30 10:35:37;;;;;;;8.95;2.40;;;7.40;99.90;;;;;;4851746;29;20049;-73
2022/12/30 10:38:12;;;;;;;8.10;2.35;;;7.40;99.90;;;;;;4859713;29;20390;-73
2022/12/30 10:41:03;;;;;;;7.13;1.90;;;7.50;99.90;;;;;;4856989;29;20053;-72
2022/12/30 10:43:46;;;;;;;7.90;2.10;;;7.50;99.90;;;;;;4856660;29;20087;-72
2022/12/30 10:46:24;;;;;;;11.73;2.47;;;7.50;99.90;;;;;;4848312;29;20462;-72
2022/12/30 10:49:03;;;;;;;12.30;2.70;;;7.50;99.90;;;;;;4856706;29;20125;-71
2022/12/30 10:51:29;;;;;;;11.57;2.92;;;7.50;99.90;;;;;;4852192;29;20071;-72
2022/12/30 10:53:56;;;;;;;12.15;2.60;;;7.50;99.90;;;;;;4839664;29;20420;-72
2022/12/30 10:56:28;;;;;;;11.07;3.13;;;7.60;99.90;;;;;;4841497;29;20128;-71
2022/12/30 10:58:59;;;;;;;5.95;1.88;;;7.60;99.90;;;;;;4841795;29;20054;-76
2022/12/30 11:01:33;;;;;;;7.47;3.20;;;7.70;99.90;;;;;;4842403;29;20068;-77
2022/12/30 11:03:59;;;;;;;7.63;2.88;;;7.60;99.90;;;;;;4842071;29;20065;-77
2022/12/30 11:06:27;;;;;;;13.15;6.00;;;7.60;99.90;;;;;;4812235;29;20045;-77
2022/12/30 11:09:11;;;;;;;7.28;2.10;;;7.60;99.90;;;;;;4827504;29;20046;-77
2022/12/30 11:14:42;;;;;;;10.82;2.58;;;7.60;99.90;;;;;;4841867;29;20080;-77
2022/12/30 11:17:26;;;;;;;7.18;2.10;;;7.50;99.90;;;;;;4826553;29;20050;-78
2022/12/30 11:20:21;;;;;;;13.25;2.10;;;7.50;99.90;;;;;;4841948;29;20050;-77
2022/12/30 11:22:48;;;;;;;5.95;1.80;;;7.50;99.90;;;;;;4832230;29;20053;-78
2022/12/30 11:25:30;;;;;;;7.68;2.10;;;7.50;99.90;;;;;;4845348;29;20572;-77
2022/12/30 11:28:02;;;;;;;6.97;1.63;;;7.50;99.90;;;;;;4860379;29;20371;-78
2022/12/30 11:30:36;;;;;;;8.57;2.13;;;7.50;99.90;;;;;;4860644;29;20045;-77
2022/12/30 11:33:15;;;;;;;8.85;2.33;;;7.60;99.90;;;;;;4860727;29;20054;-78
2022/12/30 11:35:47;;;;;;;9.45;2.40;;;7.60;99.90;;;;;;4860599;29;20443;-78
2022/12/30 11:38:34;;;;;;;6.20;1.98;;;7.60;99.90;;;;;;4860640;29;20406;-78
2022/12/30 11:41:18;;;;;;;;;;;7.70;99.90;;;;;;4861026;29;20850;-78
2022/12/30 11:43:46;;;;;;;6.82;1.70;;;7.70;99.90;;;;;;4859805;29;19924;-78
2022/12/30 11:46:14;;;;;;;6.13;1.70;;;7.80;99.90;;;;;;4859898;29;20045;-76
2022/12/30 11:48:47;;;;;;;9.18;1.88;;;7.80;99.90;;;;;;4862014;29;20057;-77
2022/12/30 11:51:42;;;;;;;6.47;1.60;;;7.80;99.90;;;;;;4859099;29;20135;-79
2022/12/30 11:54:10;;;;;;;5.25;1.30;;;7.80;99.90;;;;;;4858237;29;20070;-75
2022/12/30 11:56:57;;;;;;;6.90;1.90;;;7.90;99.90;;;;;;4859123;29;20497;-77
2022/12/30 11:59:54;;;;;;;7.85;2.00;;;7.90;99.90;;;;;;4852822;29;20060;-76
2022/12/30 12:02:38;;;;;;;4.82;1.58;;;7.90;99.90;;;;;;4841683;29;20045;-77
2022/12/30 12:05:39;;;;;;;6.07;2.30;;;8.00;99.90;;;;;;4861397;29;20514;-76
2022/12/30 12:08:17;;;;;;;9.60;4.72;;;8.00;99.90;;;;;;4839559;29;20174;-76
2022/12/30 12:10:54;;;;;;;6.78;2.92;;;8.00;99.90;;;;;;4858777;29;20045;-77
2022/12/30 12:13:44;;;;;;;9.30;1.95;;;8.00;99.90;;;;;;4853088;29;20042;-77
2022/12/30 12:16:17;;;;;;;7.45;1.95;;;8.00;99.90;;;;;;4855398;29;20052;-76
2022/12/30 12:18:46;;;;;;;10.75;1.98;;;8.10;99.90;;;;;;4857117;29;20077;-77
2022/12/30 12:21:26;;;;;;;9.77;2.05;;;8.10;99.90;;;;;;4844361;29;20503;-77
2022/12/30 12:24:16;;;;;;;5.32;1.35;;;8.10;99.90;;;;;;4858304;29;20169;-77
2022/12/30 12:27:02;;;;;;;5.07;1.50;;;8.10;99.90;;;;;;4859197;29;20091;-78
2022/12/30 12:29:28;;;;;;;6.18;1.58;;;8.10;99.90;;;;;;4858510;29;20077;-77
2022/12/30 12:32:12;;;;;;;5.95;1.42;;;8.10;99.90;;;;;;4837751;29;20038;-78
2022/12/30 12:34:38;;;;;;;6.47;2.15;;;8.20;99.90;;;;;;4847771;29;20045;-78
2022/12/30 12:37:19;;;;;;;5.97;1.50;;;8.30;99.90;;;;;;4856375;29;20124;-76
2022/12/30 12:40:28;;;;;;;4.90;1.60;;;8.30;99.90;;;;;;4838653;29;20045;-76
2022/12/30 12:43:04;;;;;;;6.88;3.55;;;8.30;99.90;;;;;;4834305;29;20048;-77
2022/12/30 12:45:48;;;;;;;8.55;2.00;;;8.30;99.90;;;;;;4852911;29;20176;-79
2022/12/30 12:48:55;;;;;;;5.35;1.48;;;8.40;99.90;;;;;;4868003;29;20128;-78
2022/12/30 12:51:35;;;;;;;6.90;1.40;;;8.40;99.90;;;;;;4782955;29;20065;-74
2022/12/30 12:54:22;;;;;;;4.43;1.40;;;8.40;99.90;;;;;;4826141;29;20464;-79
2022/12/30 12:57:15;;;;;;;4.72;1.40;;;8.50;99.90;;;;;;4850255;29;20041;-78
2022/12/30 13:00:07;;;;;;;3.80;1.40;;;8.50;99.90;;;;;;4856983;29;20079;-78
2022/12/30 13:03:10;;;;;;;7.35;1.60;;;8.50;99.90;;;;;;4847496;29;20506;-77
2022/12/30 13:05:48;;;;;;;6.47;1.77;;;8.50;99.90;;;;;;4849081;29;20067;-78
2022/12/30 13:08:38;;;;;;;5.03;1.50;;;8.60;99.90;;;;;;4861581;29;20054;-78
2022/12/30 13:11:32;;;;;;;6.07;1.65;;;8.60;99.90;;;;;;4845749;29;20049;-77
2022/12/30 13:14:23;;;;;;;5.95;1.67;;;8.60;99.90;;;;;;4850460;29;20075;-78
2022/12/30 13:16:54;;;;;;;6.50;1.77;;;8.60;99.90;;;;;;4863392;29;20081;-77
2022/12/30 13:19:23;;;;;;;5.93;1.45;;;8.60;99.90;;;;;;4852956;29;20398;-77
2022/12/30 13:21:53;;;;;;;3.90;1.52;;;8.70;99.90;;;;;;4849666;29;20071;-77
2022/12/30 13:24:30;;;;;;;5.28;1.48;;;8.70;99.90;;;;;;4854413;29;20046;-77
2022/12/30 13:26:55;;;;;;;7.97;2.00;;;8.70;99.90;;;;;;4838879;29;20048;-77
2022/12/30 13:29:25;;;;;;;6.43;1.55;;;8.70;99.90;;;;;;4838032;29;20045;-77
2022/12/30 13:32:20;;;;;;;5.28;1.77;;;8.70;99.90;;;;;;4830804;29;20109;-73
2022/12/30 13:34:57;;;;;;;8.77;2.05;;;8.70;99.90;;;;;;4851428;29;20132;-72
2022/12/30 13:37:49;;;;;;;4.15;1.40;;;8.80;99.90;;;;;;4847006;29;20046;-72
2022/12/30 13:40:21;;;;;;;4.55;1.20;;;8.80;99.90;;;;;;4841103;29;20706;-71
2022/12/30 13:43:12;;;;;;;4.20;1.33;;;8.80;99.90;;;;;;4846688;29;20518;-71
2022/12/30 13:45:47;;;;;;;6.15;1.40;;;8.80;99.90;;;;;;4841451;29;20071;-78
2022/12/30 13:48:19;;;;;;;5.60;1.40;;;8.90;99.90;;;;;;4861501;29;20103;-77
2022/12/30 13:50:46;;;;;;;4.22;1.20;;;8.90;99.90;;;;;;4840723;29;20097;-78
2022/12/30 13:53:30;;;;;;;5.32;1.67;;;8.90;99.90;;;;;;4850561;29;20573;-77
2022/12/30 13:55:56;;;;;;;6.55;1.45;;;9.00;99.90;;;;;;4860960;29;20145;-77
2022/12/30 13:58:28;;;;;;;4.72;1.42;;;8.90;99.90;;;;;;4860367;29;20076;-77
2022/12/30 14:01:19;;;;;;;2.60;1.17;;;9.00;99.90;;;;;;4852968;29;20049;-77
2022/12/30 14:03:50;;;;;;;5.93;1.50;;;9.00;99.90;;;;;;4862817;29;20069;-76
2022/12/30 14:06:45;;;;;;;5.57;1.45;;;9.10;99.90;;;;;;4860146;29;20046;-77
2022/12/30 14:09:18;;;;;;;5.00;1.70;;;9.10;99.90;;;;;;4859950;29;20172;-78
2022/12/30 14:12:02;;;;;;;6.10;1.30;;;9.10;99.90;;;;;;4851095;29;20053;-78
2022/12/30 14:14:29;;;;;;;7.47;1.42;;;9.10;99.90;;;;;;4841168;29;20064;-78
2022/12/30 14:17:06;;;;;;;5.90;1.40;;;9.10;99.90;;;;;;4861679;29;20144;-78